Ferndale, CA

11:58 PM PST on January 22, 2017 (GMT -0800)
VANSTON Fields | | Change Station
Active Advisory: Hazardous Seas Warning

Elev 49 ft 40.58 °N, 124.26 °W | Updated 10 seconds ago

Overcast
Overcast
39.2 °F
Feels Like 39 °F
N
3.0
Wind Variable Wind from ESE

Today
High -- | Low -- °F
--% Chance of Precip.
Yesterday
High -- | Low -- °F
Precip. -- in
Pressure 29.68 in
Visibility 10.0 miles
Clouds Scattered Clouds 3200 ft
Mostly Cloudy 5000 ft
Overcast 9000 ft
Windchill 39 °F
Dew Point 35 °F
Humidity 86%
Rainfall 0.13 in
Snow Depth Not available.
7:34 AM 5:23 PM
Waning Crescent, 20% visible
METAR KFOT 230735Z AUTO 12012KT 10SM SCT032 BKN050 OVC090 04/02 A2968 RMK AO1
Pressure 29.68 in
Visibility 10.0 miles
Clouds Scattered Clouds 3200 ft
Mostly Cloudy 5000 ft
Overcast 9000 ft
Windchill 39 °F
Dew Point 35 °F
Humidity 86%
Rainfall 0.13 in
Snow Depth Not available.
7:34 AM 5:23 PM
Waning Crescent, 20% visible
METAR KFOT 230735Z AUTO 12012KT 10SM SCT032 BKN050 OVC090 04/02 A2968 RMK AO1

Get Your Daily Forecast Email!

Thanks for signing up!

Be on the lookout for a verification email in your inbox.

You'll start receiving the daily forecast at 8 AM.

×

10-Day Weather Forecast

Almanac

Astronomy

Jan. 22, 2017 Rise Set
Actual Time
Civil Twilight
Nautical Twilight
Astronomical Twilight
Moon
Length of Visible Light
Length of Day
Tomorrow will be .
, % of the Moon is Illuminated

Today's Extremes

State Highs State Lows

Community

WunderPhotos

Upload Photos

1,962,540 photos uploaded!

WunderBlog® & News

Nearby

Air Quality

  Air Quality AQ Index Pollutant
Not available.

Snow Depth

Station Depth Elevation

Earthquake Activity

City Distance Mag. Time & Date
Minimum magnitude displayed is 2.5.

Coastal Water Temperatures

Place Temperature

Stations

Nearby Weather Stations

Station Location Temp. Windchill Dew Point Humidity Wind Precip. Elev Updated Type
                   

Watches & Warnings

Hazardous Seas Warning
Issued: 9:17 PM PST Jan. 22, 2017 – National Weather Service

... Hazardous seas warning in effect until 10 PM Monday...

* winds... S to SW 10 to 20 kt with gusts to 25 kt.

* Waves... seas will remain elevated through Monday night as a
westerly swell persists. Wave heights will be around 15 to 20
feet with wave periods of around 15 seconds.

Precautionary/preparedness actions...

A hazardous seas warning means hazardous sea conditions are
imminent or occurring. Recreational boaters should remain in
port... or take shelter until waves subside. Commercial vessels
should prepare for rough seas and consider remaining in port or
taking shelter in port until hazardous seas subside.